Terminal Aerodrome Forecast
Issued by NWS Sterling, VA

Current Version | Previous Version | Graphics & Text | Print | Product List | Glossary On
Versions: 1 2 3 4 5 6 7 8 9 10 11 12 13 14 15 16 17 18 19 20 21 22 23
000
FTUS41 KLWX 121720
TAFIAD
TAF
KIAD 121720Z 1218/1324 29013G20KT P6SM SCT050 BKN090
     FM122300 31017G26KT P6SM FEW060 SCT080
     FM132000 28011KT P6SM FEW080 FEW200
     FM132200 26006KT P6SM FEW070 SCT100=

USA.gov is the U.S. government's official web portal to all federal, state and local government web resources and services.